createdAt,value
2019-04-11T00:00:55.609Z,8.78
2019-04-11T00:01:54.292Z,8.83
2019-04-11T00:02:55.350Z,8.74
2019-04-11T00:03:54.113Z,8.78
2019-04-11T00:04:54.826Z,8.72
2019-04-11T00:05:55.072Z,8.72
2019-04-11T00:06:54.163Z,8.75
2019-04-11T00:07:54.435Z,8.79
2019-04-11T00:08:54.435Z,8.78
2019-04-11T00:09:54.774Z,8.76
2019-04-11T00:10:54.119Z,8.76
2019-04-11T00:11:54.580Z,8.75
2019-04-11T00:12:54.979Z,8.72
2019-04-11T00:13:54.077Z,8.68
2019-04-11T00:14:54.059Z,8.71
2019-04-11T00:15:55.204Z,8.65
2019-04-11T00:16:55.517Z,8.57
2019-04-11T00:17:54.703Z,8.59
2019-04-11T00:18:54.948Z,8.57
2019-04-11T00:19:54.047Z,8.58
2019-04-11T00:20:54.095Z,8.61
2019-04-11T00:21:55.362Z,8.59
2019-04-11T00:22:54.323Z,8.59
2019-04-11T00:23:54.826Z,8.59
2019-04-11T00:24:54.114Z,8.61
2019-04-11T00:25:54.089Z,8.65
2019-04-11T00:26:55.085Z,8.55
2019-04-11T00:27:54.750Z,8.68
2019-04-11T00:28:54.329Z,8.65
2019-04-11T00:29:54.072Z,8.68
2019-04-11T00:30:54.897Z,8.65
2019-04-11T00:31:55.003Z,8.51
2019-04-11T00:32:54.066Z,8.45
2019-04-11T00:33:54.935Z,8.44
2019-04-11T00:34:55.445Z,8.45
2019-04-11T00:35:54.094Z,8.47
2019-04-11T00:36:55.035Z,8.51
2019-04-11T00:37:54.029Z,8.48
2019-04-11T00:38:55.292Z,8.55
2019-04-11T00:39:54.241Z,8.54
2019-04-11T00:40:54.820Z,8.49
2019-04-11T00:41:54.569Z,8.48
2019-04-11T00:42:54.876Z,8.44
2019-04-11T00:43:54.813Z,8.48
2019-04-11T00:44:55.106Z,8.44
2019-04-11T00:45:54.313Z,8.45
2019-04-11T00:46:54.060Z,8.4
2019-04-11T00:47:54.086Z,8.36
2019-04-11T00:48:54.615Z,8.4
2019-04-11T00:49:54.843Z,8.41
2019-04-11T00:50:54.035Z,8.45
2019-04-11T00:51:54.089Z,8.47
2019-04-11T00:52:54.066Z,8.49
2019-04-11T00:53:54.260Z,8.51
2019-04-11T00:54:55.449Z,8.51
2019-04-11T00:55:54.078Z,8.54
2019-04-11T00:56:54.883Z,8.55
2019-04-11T00:57:55.176Z,8.48
2019-04-11T00:58:54.363Z,8.48
2019-04-11T00:59:54.478Z,8.49
2019-04-11T01:00:54.015Z,8.48
2019-04-11T01:01:54.202Z,8.48
2019-04-11T01:02:54.086Z,8.51
2019-04-11T01:03:55.949Z,8.48
2019-04-11T01:04:54.057Z,8.3
2019-04-11T01:05:56.845Z,8.24
2019-04-11T01:06:54.528Z,8.31
2019-04-11T01:07:54.012Z,8.3
2019-04-11T01:08:54.091Z,8.3
2019-04-11T01:09:54.949Z,8.19
2019-04-11T01:10:55.285Z,8.06
2019-04-11T01:11:54.450Z,8.05
2019-04-11T01:12:54.190Z,8.08
2019-04-11T01:13:55.877Z,8.14
2019-04-11T01:14:55.446Z,8.19
2019-04-11T01:15:54.578Z,8.2
2019-04-11T01:16:54.015Z,8.2
2019-04-11T01:17:54.020Z,8.24
2019-04-11T01:18:55.318Z,8.27
2019-04-11T01:19:55.473Z,8.27
2019-04-11T01:20:54.028Z,8.26
2019-04-11T01:21:55.137Z,8.29
2019-04-11T01:22:54.380Z,8.3
2019-04-11T01:23:54.075Z,8.21
2019-04-11T01:24:53.985Z,8.2
2019-04-11T01:25:55.058Z,8.17
2019-04-11T01:26:55.272Z,8.16
2019-04-11T01:27:54.472Z,8.17
2019-04-11T01:28:55.507Z,8.17
2019-04-11T01:29:54.005Z,8.17
2019-04-11T01:30:54.007Z,8.03
2019-04-11T01:31:54.114Z,7.85
2019-04-11T01:32:55.004Z,7.81
2019-04-11T01:33:54.004Z,7.89
2019-04-11T01:34:55.135Z,7.92
2019-04-11T01:35:53.989Z,7.95
2019-04-11T01:36:54.068Z,7.96
2019-04-11T01:37:53.966Z,7.99
2019-04-11T01:38:54.951Z,8.02
2019-04-11T01:39:54.049Z,8.02
2019-04-11T01:40:54.162Z,8.03
2019-04-11T01:41:55.376Z,8.01
2019-04-11T01:42:53.982Z,8.01
2019-04-11T01:44:06.823Z,7.98
2019-04-11T01:44:54.984Z,7.96
2019-04-11T01:45:53.969Z,7.98
2019-04-11T01:46:54.274Z,7.95
2019-04-11T01:47:55.253Z,7.82
2019-04-11T01:48:53.972Z,7.5
2019-04-11T01:49:54.707Z,7.58
2019-04-11T01:50:53.973Z,7.64
2019-04-11T01:51:54.073Z,7.65
2019-04-11T01:52:55.155Z,7.64
2019-04-11T01:53:55.253Z,7.55
2019-04-11T01:54:54.341Z,7.54
2019-04-11T01:55:54.005Z,7.55
2019-04-11T01:56:53.967Z,7.54
2019-04-11T01:57:54.170Z,7.55
2019-04-11T01:58:55.380Z,7.54
2019-04-11T01:59:53.970Z,7.51
2019-04-11T02:00:54.879Z,7.53
2019-04-11T02:01:54.996Z,7.51
2019-04-11T02:02:55.025Z,7.43
2019-04-11T02:03:55.422Z,7.37
2019-04-11T02:04:54.522Z,7.33
2019-04-11T02:05:53.978Z,7.34
2019-04-11T02:06:54.356Z,7.33
2019-04-11T02:07:55.347Z,7.18
2019-04-11T02:08:53.930Z,7.22
2019-04-11T02:09:54.941Z,7.2
2019-04-11T02:10:54.124Z,7.23
2019-04-11T02:11:54.133Z,7.23
2019-04-11T02:12:53.932Z,7.2
2019-04-11T02:14:16.361Z,7.22
2019-04-11T02:14:53.930Z,7.2
2019-04-11T02:16:01.131Z,7.11
2019-04-11T02:16:53.971Z,7.03
2019-04-11T02:17:55.196Z,7.01
2019-04-11T02:18:54.181Z,7.02
2019-04-11T02:19:54.002Z,6.98
2019-04-11T02:20:55.812Z,6.98
2019-04-11T02:21:53.930Z,6.83
2019-04-11T02:22:55.164Z,6.56
2019-04-11T02:23:55.166Z,6.58
2019-04-11T02:24:54.444Z,6.63
2019-04-11T02:25:54.639Z,6.67
2019-04-11T02:26:54.743Z,6.7
2019-04-11T02:27:54.388Z,6.65
2019-04-11T02:28:55.374Z,6.7
2019-04-11T02:29:55.301Z,6.7
2019-04-11T02:30:56.837Z,6.75
2019-04-11T02:32:01.176Z,6.75
2019-04-11T02:32:53.933Z,6.75
2019-04-11T02:33:57.762Z,6.78
2019-04-11T02:35:02.355Z,6.77
2019-04-11T02:35:57.154Z,6.77
2019-04-11T02:36:59.722Z,6.74
2019-04-11T02:37:59.067Z,6.74
2019-04-11T02:39:06.241Z,6.68
2019-04-11T02:39:59.632Z,6.57
2019-04-11T02:40:57.948Z,6.56
2019-04-11T02:41:58.988Z,6.44
2019-04-11T02:42:55.067Z,6.32
2019-04-11T02:43:59.005Z,6.39
2019-04-11T02:45:30.480Z,6.44
2019-04-11T02:46:29.055Z,6.4
2019-04-11T02:47:16.162Z,6.44
2019-04-11T02:47:57.249Z,6.44
2019-04-11T02:48:58.711Z,6.39
2019-04-11T02:49:55.230Z,6.41
2019-04-11T02:50:58.544Z,6.39
2019-04-11T02:51:56.220Z,6.36
2019-04-11T02:52:54.138Z,6.36
2019-04-11T02:53:59.098Z,6.36
2019-04-11T02:54:54.706Z,6.4
2019-04-11T02:55:57.977Z,6.3
2019-04-11T02:56:55.127Z,6.09
2019-04-11T02:57:56.412Z,6.16
2019-04-11T02:58:56.623Z,6.04
2019-04-11T02:59:56.683Z,6.08
2019-04-11T03:01:04.720Z,6.13
2019-04-11T03:01:53.877Z,6.13
2019-04-11T03:02:53.905Z,6.15
2019-04-11T03:03:59.168Z,5.91
2019-04-11T03:04:56.760Z,5.95
2019-04-11T03:05:59.789Z,6.02
2019-04-11T03:06:55.985Z,6.06
2019-04-11T03:07:56.370Z,6.09
2019-04-11T03:08:59.056Z,6.12
2019-04-11T03:09:56.959Z,6.12
2019-04-11T03:10:57.735Z,5.97
2019-04-11T03:11:57.399Z,6.02
2019-04-11T03:12:54.771Z,6.09
2019-04-11T03:13:55.194Z,6.11
2019-04-11T03:16:32.531Z,6.11
2019-04-11T03:17:20.392Z,6.18
2019-04-11T03:18:06.179Z,6.18
2019-04-11T03:19:41.927Z,6.18
2019-04-11T03:20:26.261Z,6.13
2019-04-11T03:21:11.014Z,6.13
2019-04-11T03:21:58.905Z,6.15
2019-04-11T03:23:07.589Z,6.13
2019-04-11T03:23:54.081Z,6.13
2019-04-11T03:25:00.207Z,6.13
2019-04-11T03:25:54.628Z,6.13
2019-04-11T03:27:04.226Z,6.16
2019-04-11T03:27:54.443Z,6.15
2019-04-11T03:28:59.378Z,6.16
2019-04-11T03:30:00.015Z,6.16
2019-04-11T03:33:53.619Z,6.18
2019-04-11T03:36:59.735Z,6.13
2019-04-11T03:38:18.247Z,6.08
2019-04-11T03:39:00.102Z,6.11
2019-04-11T03:39:55.980Z,6.12
2019-04-11T03:40:44.858Z,6.11
2019-04-11T03:42:42.603Z,6.12
2019-04-11T03:43:35.369Z,6.12
2019-04-11T03:44:21.090Z,6.12
2019-04-11T03:45:52.321Z,6.06
2019-04-11T03:46:47.389Z,5.98
2019-04-11T03:47:37.263Z,5.95
2019-04-11T03:48:36.591Z,5.95
2019-04-11T03:49:28.797Z,5.97
2019-04-11T03:50:15.271Z,5.95
2019-04-11T03:50:59.515Z,5.92
2019-04-11T03:51:55.855Z,5.94
2019-04-11T03:53:01.074Z,5.94
2019-04-11T03:53:53.833Z,5.9
2019-04-11T03:54:58.062Z,5.88
2019-04-11T03:55:56.364Z,5.85
2019-04-11T03:56:54.105Z,5.87
2019-04-11T03:58:01.168Z,5.87
2019-04-11T03:58:57.702Z,5.9
2019-04-11T03:59:58.253Z,5.83
2019-04-11T04:01:05.641Z,5.8
2019-04-11T04:01:58.743Z,5.75
2019-04-11T04:02:59.950Z,5.77
2019-04-11T04:03:55.907Z,5.75
2019-04-11T04:04:54.872Z,5.78
2019-04-11T04:06:00.116Z,5.75
2019-04-11T04:06:58.398Z,5.73
2019-04-11T04:07:59.739Z,5.64
2019-04-11T04:08:55.898Z,5.49
2019-04-11T04:09:54.751Z,5.5
2019-04-11T04:10:53.769Z,5.51
2019-04-11T04:11:57.502Z,5.53
2019-04-11T04:13:00.190Z,5.6
2019-04-11T04:13:56.390Z,5.59
2019-04-11T04:14:54.554Z,5.53
2019-04-11T04:16:18.529Z,5.35
2019-04-11T04:17:03.992Z,5.29
2019-04-11T04:17:57.375Z,5.33
2019-04-11T04:18:57.008Z,5.35
2019-04-11T04:19:56.821Z,5.38
2019-04-11T04:20:53.885Z,5.35
2019-04-11T04:21:57.471Z,5.21
2019-04-11T04:22:56.767Z,5.23
2019-04-11T04:24:01.331Z,5.26
2019-04-11T04:24:56.368Z,5.28
2019-04-11T04:25:55.262Z,5.3
2019-04-11T04:26:59.087Z,5.35
2019-04-11T04:27:57.332Z,5.32
2019-04-11T04:28:55.730Z,5.29
2019-04-11T04:30:02.728Z,5.19
2019-04-11T04:30:54.609Z,5.21
2019-04-11T04:31:55.268Z,5.21
2019-04-11T04:32:56.872Z,5.16
2019-04-11T04:33:57.701Z,5.18
2019-04-11T04:34:53.820Z,5.25
2019-04-11T04:35:53.799Z,5.26
2019-04-11T04:36:55.825Z,5.28
2019-04-11T04:37:54.698Z,5.32
2019-04-11T04:38:54.801Z,5.3
2019-04-11T04:41:29.694Z,5.3
2019-04-11T04:42:17.936Z,5.32
2019-04-11T04:43:01.098Z,5.36
2019-04-11T04:43:59.200Z,5.35
2019-04-11T04:44:56.067Z,5.33
2019-04-11T04:46:39.163Z,5.33
2019-04-11T04:47:22.024Z,5.33
2019-04-11T04:48:08.351Z,5.33
2019-04-11T04:48:56.266Z,5.32
2019-04-11T04:49:54.604Z,5.28
2019-04-11T04:51:05.733Z,5.15
2019-04-11T04:51:56.305Z,5.12
2019-04-11T04:52:58.152Z,5
2019-04-11T04:53:59.548Z,4.81
2019-04-11T04:55:01.510Z,4.77
2019-04-11T04:55:54.569Z,4.86
2019-04-11T04:56:55.317Z,4.87
2019-04-11T04:57:59.334Z,4.91
2019-04-11T04:58:56.112Z,4.9
2019-04-11T04:59:57.457Z,4.9
2019-04-11T05:00:58.741Z,4.94
2019-04-11T05:01:56.059Z,4.91
2019-04-11T05:02:59.319Z,4.84
2019-04-11T05:03:58.156Z,4.8
2019-04-11T05:04:54.526Z,4.8
2019-04-11T05:05:55.595Z,4.7
2019-04-11T05:06:55.326Z,4.74
2019-04-11T05:07:54.287Z,4.76
2019-04-11T05:08:53.730Z,4.8
2019-04-11T05:09:56.821Z,4.83
2019-04-11T05:10:57.992Z,4.8
2019-04-11T05:11:55.320Z,4.81
2019-04-11T05:12:57.147Z,4.83
2019-04-11T05:13:56.826Z,4.8
2019-04-11T05:14:56.209Z,4.83
2019-04-11T05:16:17.762Z,4.84
2019-04-11T05:16:54.763Z,4.79
2019-04-11T05:17:53.670Z,4.77
2019-04-11T05:18:54.869Z,4.81
2019-04-11T05:19:54.569Z,4.84
2019-04-11T05:20:54.877Z,4.86
2019-04-11T05:21:54.211Z,4.84
2019-04-11T05:22:54.014Z,4.84
2019-04-11T05:23:56.784Z,4.84
2019-04-11T05:24:58.414Z,4.84
2019-04-11T05:25:53.716Z,4.91
2019-04-11T05:26:53.706Z,4.94
2019-04-11T05:27:54.213Z,4.93
2019-04-11T05:28:53.680Z,4.98
2019-04-11T05:29:53.693Z,5
2019-04-11T05:30:53.745Z,4.95
2019-04-11T05:31:54.849Z,5
2019-04-11T05:32:53.665Z,5
2019-04-11T05:33:54.040Z,5.05
2019-04-11T05:34:53.661Z,5.08
2019-04-11T05:35:54.360Z,5.04
2019-04-11T05:36:53.935Z,5.02
2019-04-11T05:37:53.712Z,5.04
2019-04-11T05:38:54.862Z,4.98
2019-04-11T05:39:53.648Z,4.98
2019-04-11T05:40:54.734Z,4.9
2019-04-11T05:41:54.604Z,4.95
2019-04-11T05:42:55.921Z,4.95
2019-04-11T05:43:53.882Z,4.98
2019-04-11T05:44:54.931Z,5.01
2019-04-11T05:45:58.209Z,5.01
2019-04-11T05:47:03.684Z,5.02
2019-04-11T05:47:58.460Z,5.05
2019-04-11T05:49:01.976Z,5.1
2019-04-11T05:49:54.863Z,5.07
2019-04-11T05:50:54.270Z,5.1
2019-04-11T05:52:00.277Z,5.11
2019-04-11T05:52:54.781Z,5.12
2019-04-11T05:53:55.945Z,5.16
2019-04-11T05:54:54.487Z,5.18
2019-04-11T05:55:53.650Z,5.23
2019-04-11T05:56:59.977Z,5.25
2019-04-11T05:57:54.611Z,5.29
2019-04-11T05:58:53.648Z,5.36
2019-04-11T05:59:57.752Z,5.35
2019-04-11T06:00:59.207Z,5.36
2019-04-11T06:01:55.088Z,5.4
2019-04-11T06:02:53.685Z,5.43
2019-04-11T06:03:53.829Z,5.47
2019-04-11T06:04:57.887Z,5.53
2019-04-11T06:06:01.827Z,5.53
2019-04-11T06:06:59.741Z,5.56
2019-04-11T06:07:58.156Z,5.54
2019-04-11T06:09:01.056Z,5.59
2019-04-11T06:09:54.730Z,5.6
2019-04-11T06:10:54.899Z,5.66
2019-04-11T06:11:58.183Z,5.7
2019-04-11T06:12:54.821Z,5.69
2019-04-11T06:13:53.600Z,5.71
2019-04-11T06:14:53.647Z,5.73
2019-04-11T06:15:53.706Z,5.75
2019-04-11T06:16:58.785Z,5.78
2019-04-11T06:17:54.744Z,5.83
2019-04-11T06:18:54.443Z,5.84
2019-04-11T06:19:53.746Z,5.84
2019-04-11T06:20:53.797Z,5.87
2019-04-11T06:21:53.648Z,5.87
2019-04-11T06:22:54.270Z,5.91
2019-04-11T06:23:53.960Z,5.92
2019-04-11T06:24:54.750Z,5.95
2019-04-11T06:25:53.621Z,5.98
2019-04-11T06:26:54.901Z,6.01
2019-04-11T06:27:54.120Z,6.04
2019-04-11T06:28:57.054Z,6.04
2019-04-11T06:29:53.572Z,6.05
2019-04-11T06:30:54.941Z,6.09
2019-04-11T06:31:53.643Z,6.15
2019-04-11T06:32:54.534Z,6.15
2019-04-11T06:33:53.581Z,6.12
2019-04-11T06:34:53.571Z,6.18
2019-04-11T06:35:54.762Z,6.23
2019-04-11T06:36:55.356Z,6.25
2019-04-11T06:37:54.473Z,6.28
2019-04-11T06:38:54.883Z,6.3
2019-04-11T06:39:59.618Z,6.3
2019-04-11T06:40:54.688Z,6.28
2019-04-11T06:41:55.003Z,6.32
2019-04-11T06:42:53.982Z,6.35
2019-04-11T06:43:53.630Z,6.3
2019-04-11T06:44:54.839Z,6.29
2019-04-11T06:45:54.515Z,6.35
2019-04-11T06:47:01.919Z,6.37
2019-04-11T06:47:53.745Z,6.44
2019-04-11T06:48:54.130Z,6.46
2019-04-11T06:49:53.550Z,6.5
2019-04-11T06:50:53.523Z,6.54
2019-04-11T06:51:55.187Z,6.57
2019-04-11T06:52:53.618Z,6.63
2019-04-11T06:53:54.775Z,6.64
2019-04-11T06:54:54.069Z,6.7
2019-04-11T06:55:55.199Z,6.68
2019-04-11T06:56:53.975Z,6.65
2019-04-11T06:57:54.392Z,6.67
2019-04-11T06:58:56.938Z,6.7
2019-04-11T06:59:53.576Z,6.74
2019-04-11T07:00:53.722Z,6.77
2019-04-11T07:01:55.239Z,6.8
2019-04-11T07:02:53.506Z,6.81
2019-04-11T07:03:53.518Z,6.84
2019-04-11T07:04:54.047Z,6.91
2019-04-11T07:05:53.594Z,6.9
2019-04-11T07:06:53.829Z,6.9
2019-04-11T07:07:53.997Z,6.85
2019-04-11T07:08:54.773Z,6.88
2019-04-11T07:09:53.662Z,6.92
2019-04-11T07:10:55.403Z,6.95
2019-04-11T07:11:53.778Z,7.02
2019-04-11T07:12:59.015Z,7.06
2019-04-11T07:13:53.526Z,7.02
2019-04-11T07:14:53.521Z,7.01
2019-04-11T07:15:54.926Z,7.03
2019-04-11T07:17:08.817Z,7.09
2019-04-11T07:17:54.778Z,7.11
2019-04-11T07:18:53.507Z,7.02
2019-04-11T07:19:53.819Z,7.05
2019-04-11T07:20:54.441Z,7.05
2019-04-11T07:21:53.500Z,7.11
2019-04-11T07:22:53.509Z,7.19
2019-04-11T07:23:53.576Z,7.16
2019-04-11T07:24:53.510Z,7.16
2019-04-11T07:25:54.063Z,7.15
2019-04-11T07:26:54.482Z,7.11
2019-04-11T07:27:53.509Z,7.13
2019-04-11T07:28:54.390Z,7.16
2019-04-11T07:29:54.542Z,7.22
2019-04-11T07:30:53.996Z,7.26
2019-04-11T07:31:54.924Z,7.29
2019-04-11T07:32:53.509Z,7.39
2019-04-11T07:33:54.137Z,7.37
2019-04-11T07:34:54.647Z,7.34
2019-04-11T07:35:53.558Z,7.41
2019-04-11T07:36:53.698Z,7.44
2019-04-11T07:37:53.523Z,7.48
2019-04-11T07:38:54.565Z,7.51
2019-04-11T07:39:53.486Z,7.58
2019-04-11T07:40:56.258Z,7.64
2019-04-11T07:41:53.481Z,7.71
2019-04-11T07:43:05.723Z,7.77
2019-04-11T07:43:54.391Z,7.81
2019-04-11T07:44:53.467Z,7.86
2019-04-11T07:45:53.791Z,7.85
2019-04-11T07:46:53.920Z,7.75
2019-04-11T07:47:54.934Z,7.59
2019-04-11T07:48:54.951Z,7.54
2019-04-11T07:49:58.298Z,7.5
2019-04-11T07:50:55.601Z,7.53
2019-04-11T07:51:54.367Z,7.51
2019-04-11T07:52:53.867Z,7.58
2019-04-11T07:53:54.760Z,7.68
2019-04-11T07:54:53.791Z,7.74
2019-04-11T07:55:53.491Z,7.71
2019-04-11T07:56:53.540Z,7.77
2019-04-11T07:57:54.825Z,7.75
2019-04-11T07:58:54.390Z,7.72
2019-04-11T07:59:53.514Z,7.78
2019-04-11T08:00:56.130Z,7.8
2019-04-11T08:01:53.464Z,7.77
2019-04-11T08:02:53.431Z,7.74
2019-04-11T08:03:53.715Z,7.8
2019-04-11T08:04:53.751Z,7.93
2019-04-11T08:05:54.688Z,8.03
2019-04-11T08:06:54.440Z,7.99
2019-04-11T08:07:53.516Z,8.03
2019-04-11T08:08:56.097Z,8.06
2019-04-11T08:09:53.449Z,8.08
2019-04-11T08:10:54.776Z,8.1
2019-04-11T08:11:53.426Z,8.05
2019-04-11T08:12:54.349Z,8.02
2019-04-11T08:13:56.818Z,8.02
2019-04-11T08:14:53.401Z,8.08
2019-04-11T08:15:53.841Z,8.13
2019-04-11T08:16:53.420Z,8.1
2019-04-11T08:17:54.514Z,8.21
2019-04-11T08:18:53.400Z,8.29
2019-04-11T08:19:53.422Z,8.27
2019-04-11T08:20:53.426Z,8.33
2019-04-11T08:21:54.678Z,8.36
2019-04-11T08:22:53.396Z,8.33
2019-04-11T08:23:54.348Z,8.27
2019-04-11T08:24:53.594Z,8.36
2019-04-11T08:25:53.802Z,8.38
2019-04-11T08:26:53.652Z,8.43
2019-04-11T08:28:04.679Z,8.45
2019-04-11T08:29:13.481Z,8.49
2019-04-11T08:29:53.416Z,8.57
2019-04-11T08:30:53.436Z,8.58
2019-04-11T08:31:57.654Z,8.59
2019-04-11T08:32:54.026Z,8.64
2019-04-11T08:33:53.382Z,8.69
2019-04-11T08:34:53.609Z,8.75
2019-04-11T08:35:58.305Z,8.75
2019-04-11T08:36:53.386Z,8.91
2019-04-11T08:37:54.157Z,8.92
2019-04-11T08:38:53.423Z,8.86
2019-04-11T08:39:53.528Z,8.82
2019-04-11T08:40:53.469Z,8.88
2019-04-11T08:41:53.438Z,8.89
2019-04-11T08:42:53.404Z,8.89
2019-04-11T08:43:53.374Z,8.95
2019-04-11T08:44:54.385Z,8.89
2019-04-11T08:45:54.343Z,8.95
2019-04-11T08:46:54.089Z,9.02
2019-04-11T08:47:59.992Z,9.04
2019-04-11T08:48:54.567Z,9.1
2019-04-11T08:49:57.078Z,9
2019-04-11T08:50:54.764Z,9.07
2019-04-11T08:51:53.919Z,9.14
2019-04-11T08:52:54.347Z,9.21
2019-04-11T08:53:53.349Z,9.23
2019-04-11T08:54:53.633Z,9.24
2019-04-11T08:56:01.835Z,9.27
2019-04-11T08:56:53.748Z,9.33
2019-04-11T08:57:53.707Z,9.35
2019-04-11T08:58:53.363Z,9.42
2019-04-11T08:59:53.606Z,9.41
2019-04-11T09:01:00.695Z,9.49
2019-04-11T09:01:54.110Z,9.55
2019-04-11T09:02:53.590Z,9.63
2019-04-11T09:04:10.493Z,9.7
2019-04-11T09:05:15.084Z,9.69
2019-04-11T09:05:53.445Z,9.68
2019-04-11T09:06:53.365Z,9.69
2019-04-11T09:07:54.235Z,9.72
2019-04-11T09:08:54.534Z,9.73
2019-04-11T09:09:53.937Z,9.76
2019-04-11T09:10:53.871Z,9.76
2019-04-11T09:12:12.566Z,9.83
2019-04-11T09:12:53.407Z,9.88
2019-04-11T09:13:53.580Z,9.94
2019-04-11T09:14:53.371Z,9.94
2019-04-11T09:15:53.353Z,9.99
2019-04-11T09:16:54.262Z,10.04
2019-04-11T09:18:07.917Z,10.04
2019-04-11T09:18:54.523Z,10.1
2019-04-11T09:19:53.335Z,10.16
2019-04-11T09:20:54.112Z,10.17
2019-04-11T09:21:53.330Z,10.2
2019-04-11T09:22:53.511Z,10.19
2019-04-11T09:23:54.775Z,10.25
2019-04-11T09:24:53.339Z,10.27
2019-04-11T09:25:56.595Z,10.28
2019-04-11T09:26:58.456Z,10.34
2019-04-11T09:27:55.777Z,10.38
2019-04-11T09:28:53.756Z,10.41
2019-04-11T09:29:54.583Z,10.47
2019-04-11T09:30:53.300Z,10.48
2019-04-11T09:31:53.997Z,10.48
2019-04-11T09:32:53.406Z,10.55
2019-04-11T09:33:55.648Z,10.62
2019-04-11T09:34:54.430Z,10.66
2019-04-11T09:35:53.405Z,10.44
2019-04-11T09:36:53.527Z,10.42
2019-04-11T09:37:53.922Z,10.47
2019-04-11T09:38:53.356Z,10.53
2019-04-11T09:39:53.310Z,10.64
2019-04-11T09:40:54.351Z,10.58
2019-04-11T09:41:54.590Z,10.53
2019-04-11T09:42:53.647Z,10.47
2019-04-11T09:43:53.343Z,10.44
2019-04-11T09:44:53.319Z,10.44
2019-04-11T09:45:54.414Z,10.45
2019-04-11T09:46:55.260Z,10.51
2019-04-11T09:48:16.453Z,10.49
2019-04-11T09:48:53.973Z,10.48
2019-04-11T09:49:53.901Z,10.52
2019-04-11T09:50:53.317Z,10.58
2019-04-11T09:51:54.379Z,10.64
2019-04-11T09:52:56.027Z,10.76
2019-04-11T09:53:53.439Z,10.76
2019-04-11T09:54:54.615Z,10.83
2019-04-11T09:55:53.832Z,10.87
2019-04-11T09:56:54.125Z,10.93
2019-04-11T09:57:54.769Z,11.01
2019-04-11T09:58:53.295Z,11
2019-04-11T09:59:54.410Z,11.04
2019-04-11T10:00:53.312Z,11.07
2019-04-11T10:01:54.188Z,11.1
2019-04-11T10:02:53.312Z,11.2
2019-04-11T10:03:53.401Z,11.12
2019-04-11T10:04:54.525Z,11.01
2019-04-11T10:05:54.765Z,10.86
2019-04-11T10:06:53.431Z,10.83
2019-04-11T10:07:54.631Z,10.68
2019-04-11T10:08:53.391Z,10.59
2019-04-11T10:09:56.929Z,10.65
2019-04-11T10:10:53.399Z,10.73
2019-04-11T10:11:55.247Z,10.78
2019-04-11T10:12:54.361Z,10.73
2019-04-11T10:13:53.411Z,10.82
2019-04-11T10:14:53.728Z,10.83
2019-04-11T10:15:53.753Z,10.78
2019-04-11T10:16:53.268Z,10.78
2019-04-11T10:17:53.366Z,10.84
2019-04-11T10:18:53.740Z,10.9
2019-04-11T10:19:54.444Z,11
2019-04-11T10:20:53.263Z,11.12
2019-04-11T10:21:54.524Z,11.03
2019-04-11T10:22:54.631Z,10.92
2019-04-11T10:23:53.566Z,11
2019-04-11T10:24:53.315Z,10.94
2019-04-11T10:25:53.918Z,10.76
2019-04-11T10:26:53.221Z,10.76
2019-04-11T10:27:53.311Z,10.8
2019-04-11T10:28:53.699Z,10.82
2019-04-11T10:29:53.288Z,10.87
2019-04-11T10:30:53.804Z,10.79
2019-04-11T10:31:53.285Z,10.83
2019-04-11T10:32:53.313Z,10.84
2019-04-11T10:33:53.300Z,10.86
2019-04-11T10:34:54.241Z,10.97
2019-04-11T10:35:53.255Z,11.04
2019-04-11T10:36:53.801Z,11.2
2019-04-11T10:37:53.303Z,11.17
2019-04-11T10:38:55.252Z,11.17
2019-04-11T10:39:53.827Z,11.06
2019-04-11T10:40:54.631Z,11.15
2019-04-11T10:41:53.935Z,11.2
2019-04-11T10:42:54.049Z,11.15
2019-04-11T10:43:53.951Z,11.18
2019-04-11T10:44:54.262Z,11.03
2019-04-11T10:45:53.217Z,10.93
2019-04-11T10:46:53.253Z,10.94
2019-04-11T10:47:56.046Z,10.83
2019-04-11T10:48:53.274Z,10.75
2019-04-11T10:49:53.314Z,10.59
2019-04-11T10:50:53.304Z,10.61
2019-04-11T10:51:54.106Z,10.66
2019-04-11T10:52:53.242Z,10.76
2019-04-11T10:53:53.511Z,10.75
2019-04-11T10:54:55.356Z,10.76
2019-04-11T10:55:53.928Z,10.9
2019-04-11T10:56:53.836Z,11.1
2019-04-11T10:57:54.248Z,11.22
2019-04-11T10:58:55.542Z,11.28
2019-04-11T10:59:54.700Z,11.39
2019-04-11T11:00:53.763Z,11.37
2019-04-11T11:01:53.234Z,11.38
2019-04-11T11:02:53.784Z,11.37
2019-04-11T11:03:53.682Z,11.45
2019-04-11T11:04:53.278Z,11.21
2019-04-11T11:05:53.465Z,11.18
2019-04-11T11:06:54.005Z,11.27
2019-04-11T11:07:53.204Z,11.42
2019-04-11T11:08:53.503Z,11.54
2019-04-11T11:09:53.201Z,11.68
2019-04-11T11:10:53.199Z,11.77
2019-04-11T11:11:53.304Z,11.55
2019-04-11T11:12:53.896Z,11.65
2019-04-11T11:13:54.389Z,11.77
2019-04-11T11:14:53.821Z,11.82
2019-04-11T11:15:53.221Z,11.69
2019-04-11T11:16:53.214Z,11.75
2019-04-11T11:19:57.304Z,11.49
2019-04-11T11:20:24.711Z,11.52
2019-04-11T11:21:03.593Z,11.62
2019-04-11T11:21:53.429Z,11.58
2019-04-11T11:22:53.904Z,11.66
2019-04-11T11:23:54.530Z,11.75
2019-04-11T11:24:54.611Z,11.9
2019-04-11T11:25:53.418Z,11.94
2019-04-11T11:27:01.476Z,12
2019-04-11T11:27:53.170Z,12.16
2019-04-11T11:28:53.168Z,12.1
2019-04-11T11:29:54.260Z,12
2019-04-11T11:30:54.229Z,12.04
2019-04-11T11:31:54.780Z,11.83
2019-04-11T11:32:53.996Z,11.77
2019-04-11T11:33:54.477Z,11.73
2019-04-11T11:34:55.114Z,11.84
2019-04-11T11:35:54.175Z,12.04
2019-04-11T11:36:56.968Z,12.23
2019-04-11T11:37:53.588Z,12.32
2019-04-11T11:38:54.461Z,12.45
2019-04-11T11:39:53.233Z,12.56
2019-04-11T11:40:54.319Z,12.67
2019-04-11T11:41:54.583Z,12.67
2019-04-11T11:42:53.157Z,12.66
2019-04-11T11:43:53.164Z,12.53
2019-04-11T11:44:53.298Z,12.34
2019-04-11T11:45:57.020Z,12.31
2019-04-11T11:46:54.238Z,12.31
2019-04-11T11:47:53.305Z,12.34
2019-04-11T11:48:54.523Z,12.49
2019-04-11T11:50:04.443Z,12.53
2019-04-11T11:50:53.200Z,12.65
2019-04-11T11:51:54.049Z,12.76
2019-04-11T11:52:53.292Z,12.74
2019-04-11T11:53:53.322Z,12.67
2019-04-11T11:54:53.747Z,12.82
2019-04-11T11:55:53.735Z,12.93
2019-04-11T11:56:54.151Z,13.03
2019-04-11T11:57:53.211Z,13.06
2019-04-11T11:59:00.802Z,13.08
2019-04-11T11:59:53.390Z,12.94
2019-04-11T12:00:59.440Z,12.7
2019-04-11T12:01:54.438Z,12.62
2019-04-11T12:02:55.536Z,12.49
2019-04-11T12:04:03.030Z,12.57
2019-04-11T12:04:54.147Z,12.56
2019-04-11T12:05:54.154Z,12.6
2019-04-11T12:07:04.274Z,12.73
2019-04-11T12:07:56.093Z,12.86
2019-04-11T12:08:54.182Z,12.99
2019-04-11T12:09:53.141Z,12.88
2019-04-11T12:10:53.521Z,12.88
2019-04-11T12:11:56.963Z,12.9
2019-04-11T12:12:54.188Z,12.52
2019-04-11T12:13:53.825Z,12.67
2019-04-11T12:14:53.901Z,12.6
2019-04-11T12:15:53.483Z,12.67
2019-04-11T12:17:05.233Z,12.7
2019-04-11T12:17:54.157Z,12.46
2019-04-11T12:18:55.176Z,12.53
2019-04-11T12:20:09.620Z,12.59
2019-04-11T12:20:59.192Z,12.6
2019-04-11T12:21:53.879Z,12.65
2019-04-11T12:22:55.209Z,12.62
2019-04-11T12:24:06.909Z,12.76
2019-04-11T12:24:53.455Z,12.99
2019-04-11T12:25:54.030Z,13.06
2019-04-11T12:26:54.027Z,13.14
2019-04-11T12:27:54.268Z,13.21
2019-04-11T12:28:54.312Z,13.35
2019-04-11T12:29:53.594Z,13.45
2019-04-11T12:31:03.925Z,13.53
2019-04-11T12:31:53.198Z,13.69
2019-04-11T12:32:53.083Z,13.47
2019-04-11T12:33:54.106Z,13.38
2019-04-11T12:34:53.084Z,13.52
2019-04-11T12:35:53.072Z,13.52
2019-04-11T12:36:56.525Z,13.63
2019-04-11T12:37:55.938Z,13.79
2019-04-11T12:38:55.546Z,13.93
2019-04-11T12:39:53.357Z,14.05
2019-04-11T12:40:53.175Z,14.19
2019-04-11T12:41:53.091Z,14.15
2019-04-11T12:42:53.093Z,14.24
2019-04-11T12:43:53.092Z,14.28
2019-04-11T12:44:53.064Z,14.17
2019-04-11T12:45:53.124Z,13.97
2019-04-11T12:46:53.472Z,14.07
2019-04-11T12:47:53.387Z,13.79
2019-04-11T12:48:53.139Z,13.89
2019-04-11T12:49:53.622Z,13.63
2019-04-11T12:50:53.082Z,13.67
2019-04-11T12:51:53.193Z,13.72
2019-04-11T12:52:53.106Z,13.59
2019-04-11T12:53:53.066Z,13.74
2019-04-11T12:54:53.114Z,13.82
2019-04-11T12:55:53.072Z,13.96
2019-04-11T12:56:53.135Z,14.02
2019-04-11T12:57:53.115Z,14.17
2019-04-11T12:58:53.055Z,14.17
2019-04-11T12:59:53.072Z,14.25
2019-04-11T13:00:53.056Z,14.39
2019-04-11T13:01:53.157Z,14.46
2019-04-11T13:02:53.102Z,14.25
2019-04-11T13:03:53.138Z,14.48
2019-04-11T13:04:53.111Z,14.56
2019-04-11T13:05:53.032Z,14.7
2019-04-11T13:06:54.023Z,14.74
2019-04-11T13:07:53.154Z,14.84
2019-04-11T13:08:53.382Z,14.9
2019-04-11T13:09:53.124Z,14.97
2019-04-11T13:10:53.084Z,15.02
2019-04-11T13:11:53.151Z,14.87
2019-04-11T13:12:53.033Z,14.94
2019-04-11T13:13:54.217Z,14.95
2019-04-11T13:14:53.058Z,15
2019-04-11T13:15:54.797Z,15.07
2019-04-11T13:16:53.045Z,14.83
2019-04-11T13:17:53.120Z,14.29
2019-04-11T13:18:53.070Z,14.46
2019-04-11T13:20:05.315Z,14.67
2019-04-11T13:20:53.077Z,14.79
2019-04-11T13:21:53.163Z,14.84